HomeShort term forecast

Short term forecast

Graphical weather forecast for the next 48 hours for Montreal:
Short term forecast
This weather forecast is automatically refreshed every 3 hours.

Hourly Experimental Forecast for the next 48 hours

Overall summary: Heavy snow (5–13 cm.) until this afternoon, starting again tomorrow morning.

 Date & Hour   Temp   Feel   Baro   Hum   Speed & Bearing   Wind Gust   Precip.%   Precip.   Visibility   Cloud cover   Conditions 
 18/11/2018 - 10:00  -6.5°C  -6.5°C  1029.9 hPa  71%  2.7 km/h   10.9 km/h  82%  1.09 mm/h  16.1km  28%  Heavy Snow 
 18/11/2018 - 11:00  -5.3°C  -5.3°C  1028.9 hPa  72%  4.8 km/h   13.5 km/h  52%  0.71 mm/h  16.1km  25%  Snow 
 18/11/2018 - 12:00  -4.4°C  -7.5°C  1027.9 hPa  73%  6.8 km/h   17.2 km/h  19%  0.48 mm/h  16.1km  13%  Snow 
 18/11/2018 - 13:00  -3.7°C  -7.1°C  1027.0 hPa  73%  8.0 km/h   18.6 km/h  4%  0.01 mm/h  16.1km  5%  Clear 
 18/11/2018 - 14:00  -3.6°C  -6.9°C  1026.4 hPa  74%  7.9 km/h   18.5 km/h  4%  0.01 mm/h  16.1km  4%  Clear 
 18/11/2018 - 15:00  -3.8°C  -6.8°C  1025.9 hPa  76%  7.2 km/h   15.8 km/h  0%  --  16.1km  4%  Clear 
 18/11/2018 - 16:00  -4.0°C  -6.6°C  1025.4 hPa  78%  6.0 km/h   11.4 km/h  4%  0.03 mm/h  16.1km  2%  Clear 
 18/11/2018 - 17:00  -4.4°C  -7.4°C  1025.0 hPa  79%  6.8 km/h   10.8 km/h  2%  0.04 mm/h  16.1km  6%  Clear 
 18/11/2018 - 18:00  -4.8°C  -8.4°C  1024.7 hPa  80%  8.1 km/h   15.6 km/h  2%  0.04 mm/h  16.0km  14%  Clear 
 18/11/2018 - 19:00  -5.0°C  -8.8°C  1024.3 hPa  80%  8.5 km/h   17.1 km/h  3%  0.04 mm/h  14.3km  23%  Clear 
 18/11/2018 - 20:00  -4.6°C  -8.1°C  1023.8 hPa  79%  8.1 km/h   17.7 km/h  0%  --  14.4km  53%  Partly Cloudy 
 18/11/2018 - 21:00  -3.8°C  -7.1°C  1023.1 hPa  78%  7.8 km/h   19.2 km/h  0%  --  15.0km  73%  Mostly Cloudy 
 18/11/2018 - 22:00  -3.1°C  -7.0°C  1022.4 hPa  76%  10.1 km/h   19.8 km/h  0%  --  16.1km  80%  Mostly Cloudy 
 18/11/2018 - 23:00  -2.3°C  -5.5°C  1021.8 hPa  75%  8.3 km/h   16.0 km/h  2%  0.01 mm/h  15.7km  81%  Mostly Cloudy 
 19/11/2018 - 00:00  -3.4°C  -6.5°C  1021.1 hPa  81%  7.3 km/h   12.0 km/h  3%  0.04 mm/h  13.4km  89%  Mostly Cloudy 
 19/11/2018 - 01:00  -3.5°C  -6.3°C  1020.7 hPa  82%  6.7 km/h   8.3 km/h  5%  0.05 mm/h  12.3km  87%  Mostly Cloudy 
 19/11/2018 - 02:00  -2.4°C  -4.7°C  1020.3 hPa  78%  5.9 km/h   6.5 km/h  5%  0.04 mm/h  12.5km  86%  Mostly Cloudy 
 19/11/2018 - 03:00  -2.0°C  -3.8°C  1020.1 hPa  80%  5.0 km/h   5.4 km/h  4%  0.02 mm/h  13.2km  86%  Mostly Cloudy 
 19/11/2018 - 04:00  -1.7°C  -1.7°C  1019.8 hPa  82%  4.6 km/h   4.9 km/h  4%  0.02 mm/h  13.3km  87%  Mostly Cloudy 
 19/11/2018 - 05:00  -1.5°C  -1.5°C  1019.6 hPa  83%  4.6 km/h   5.1 km/h  6%  0.04 mm/h  11.0km  89%  Mostly Cloudy 
 19/11/2018 - 06:00  -1.3°C  -2.9°C  1019.5 hPa  85%  4.9 km/h   5.7 km/h  10%  0.17 mm/h  7.6km  93%  Mostly Cloudy 
 19/11/2018 - 07:00  -1.1°C  -2.8°C  1019.4 hPa  87%  5.1 km/h   6.1 km/h  13%  0.32 mm/h  6.6km  96%  Possible Light Snow 
 19/11/2018 - 08:00  -0.8°C  -2.5°C  1019.4 hPa  87%  4.9 km/h   5.3 km/h  15%  0.37 mm/h  11.3km  98%  Possible Light Snow 
 19/11/2018 - 09:00  -0.6°C  -2.2°C  1019.4 hPa  87%  4.9 km/h   5.5 km/h  17%  0.35 mm/h  16.1km  99%  Possible Light Snow 
 19/11/2018 - 10:00  -0.4°C  -2.5°C  1019.3 hPa  86%  6.0 km/h   6.1 km/h  18%  0.28 mm/h  16.1km  100%  Possible Light Snow 
 19/11/2018 - 11:00  -0.1°C  -2.5°C  1019.0 hPa  86%  7.1 km/h   7.4 km/h  13%  0.14 mm/h  16.1km  98%  Overcast 
 19/11/2018 - 12:00  0.1°C  -2.7°C  1018.6 hPa  85%  8.1 km/h   10.0 km/h  7%  0.04 mm/h  16.1km  95%  Overcast 
 19/11/2018 - 13:00  0.1°C  -2.9°C  1018.3 hPa  86%  8.8 km/h   13.1 km/h  7%  0.02 mm/h  16.1km  93%  Mostly Cloudy 
 19/11/2018 - 14:00  -0.2°C  -2.9°C  1018.1 hPa  88%  8.0 km/h   15.5 km/h  7%  0.01 mm/h  16.1km  95%  Overcast 
 19/11/2018 - 15:00  -0.6°C  -3.2°C  1017.9 hPa  90%  7.3 km/h   17.5 km/h  8%  0.01 mm/h  16.1km  98%  Overcast 
 19/11/2018 - 16:00  -1.0°C  -3.6°C  1017.9 hPa  92%  7.2 km/h   18.5 km/h  8%  0.02 mm/h  16.1km  100%  Overcast 
 19/11/2018 - 17:00  -1.1°C  -3.7°C  1018.2 hPa  91%  7.2 km/h   18.1 km/h  9%  0.02 mm/h  16.1km  100%  Overcast 
 19/11/2018 - 18:00  -1.2°C  -4.0°C  1018.5 hPa  89%  7.7 km/h   16.6 km/h  10%  0.06 mm/h  13.3km  100%  Overcast 
 19/11/2018 - 19:00  -1.3°C  -4.4°C  1018.8 hPa  86%  8.5 km/h   14.6 km/h  11%  0.09 mm/h  11.6km  100%  Overcast 
 19/11/2018 - 20:00  -1.5°C  -4.3°C  1019.1 hPa  83%  7.3 km/h   11.8 km/h  7%  0.06 mm/h  14.3km  100%  Overcast 
 19/11/2018 - 21:00  -2.0°C  -4.7°C  1019.2 hPa  80%  7.0 km/h   8.8 km/h  4%  0.02 mm/h  16.1km  100%  Overcast 
 19/11/2018 - 22:00  -2.4°C  -5.4°C  1019.3 hPa  78%  7.6 km/h   7.9 km/h  3%  0.02 mm/h  16.1km  100%  Overcast 
 19/11/2018 - 23:00  -3.7°C  -7.2°C  1019.1 hPa  81%  8.4 km/h   11.0 km/h  4%  0.04 mm/h  16.1km  99%  Overcast 
 20/11/2018 - 00:00  -3.4°C  -7.2°C  1018.9 hPa  75%  9.7 km/h   16.3 km/h  4%  0.07 mm/h  16.1km  98%  Overcast 
 20/11/2018 - 01:00  -3.9°C  -8.2°C  1018.6 hPa  74%  10.9 km/h   20.4 km/h  5%  0.11 mm/h  16.1km  98%  Overcast 
 20/11/2018 - 02:00  -4.3°C  -8.9°C  1018.3 hPa  74%  11.9 km/h   21.8 km/h  6%  0.14 mm/h  16.1km  98%  Overcast 
 20/11/2018 - 03:00  -4.6°C  -9.6°C  1018.0 hPa  75%  13.0 km/h   22.0 km/h  7%  0.16 mm/h  11.4km  99%  Possible Light Snow 
 20/11/2018 - 04:00  -4.9°C  -10.2°C  1017.9 hPa  75%  13.8 km/h   22.3 km/h  7%  0.18 mm/h  5.9km  100%  Possible Light Snow 
 20/11/2018 - 05:00  -5.5°C  -10.9°C  1017.8 hPa  78%  14.2 km/h   23.4 km/h  8%  0.18 mm/h  3.4km  100%  Possible Light Snow 
 20/11/2018 - 06:00  -5.9°C  -11.6°C  1017.9 hPa  81%  14.5 km/h   24.5 km/h  11%  0.19 mm/h  2.5km  100%  Possible Light Snow 
 20/11/2018 - 07:00  -6.2°C  -12.0°C  1017.9 hPa  84%  14.7 km/h   25.2 km/h  16%  0.21 mm/h  1.9km  100%  Possible Light Snow 
 20/11/2018 - 08:00  -6.2°C  -11.9°C  1017.8 hPa  85%  14.7 km/h   25.1 km/h  20%  0.22 mm/h  1.4km  100%  Possible Light Snow 
 20/11/2018 - 09:00  -6.0°C  -11.6°C  1017.7 hPa  85%  14.6 km/h   24.6 km/h  22%  0.22 mm/h  1.1km  100%  Possible Light Snow 
Test

 

Past weather and reports

Past weatherFind in this section the past weather conditions, weather archive, graphics, reports and statistics.

Current conditions

Current weather condition for MontrealAll you need to know about the current weather conditions for Montreal. Weather data is updated every 10 minutes.

Weather forecast

Current Montreal weatherSince 2004, celinium.com website has provided accurate weather forecast for Montreal's island.